Delta Virtual Airport Information Service

Caracas Simon Bolivar International Airport

ICAO: SVMI Country: Venezuela
Latitude: 10.6031 Longitude: -66.9905
Latest Arrival : DAC3119 (SKCG-SVMI) Latest Departure : DAC2054 (SVMI-SYCJ)


WX CaptureLIVE
Data provided by noaa.gov | Fetched at 14:28:45

METAR : SVMI 281902Z AUTO 28008KT NCD ///// Q1009

TAF : SVMI 281600Z 2818/2918 09006KT 9999 SCT016 TX34/2818Z TN24/2908Z CC


Runway Data for SVMI
Data provided by openaviationdata.com

Runway ID Mag Var Hdg Length Elevation Surface ILS Freq ILS Id ILS Slope
9 -11 83° 10092 ft 126 ft Asphalt -- -- --
10 -11 97° 11483 ft 126 ft Asphalt 110.1 IMIQ 3
27 -11 263° 10092 ft 126 ft Asphalt -- -- --
28 -11 277° 11483 ft 126 ft Asphalt -- -- --

Caracas Simon Bolivar International Airport, Venezuela
Use only for reference purposes



Not for navigational purposes.